Roaring Gap, North Carolina
Current Conditions -  °F | °C
As of 3:15 PM on Wednesday 28 Jan 2015 (Local Time) from KUKF Reporting Station
Clear Clear  
Wind Chill:   Ceiling: Unl
Heat Index:   Visibility: 10mi
Dew Point: -8°   Wind: 5mph
Humidity: 34%   Direction: 70°ENE
Pressure: 30.24"   Gusts: NA
Location:  36.4°N, 80.98°W
Report Text: KUKF 282015Z AUTO 07004KT 10SM CLR 07/M08 A3024 RMK AO2
Loading
Personal Weather Stations






























Interactive Weather Map New forecast layout! Learn more

10-Day Weather Forecast

Advertisements
Track Severe Weather on mobile